sensor_id;sensor_type;location;lat;lon;timestamp;P1;durP1;ratioP1;P2;durP2;ratioP2
78824;SDS011;68176;45.554;10.220;2023-05-07T00:41:06;3.95;;;3.40;;
78824;SDS011;68176;45.554;10.220;2023-05-07T00:47:35;3.72;;;3.00;;
78824;SDS011;68176;45.554;10.220;2023-05-07T00:58:02;3.97;;;3.35;;
78824;SDS011;68176;45.554;10.220;2023-05-07T01:00:31;3.50;;;3.15;;
78824;SDS011;68176;45.554;10.220;2023-05-07T01:06:27;5.25;;;3.58;;
78824;SDS011;68176;45.554;10.220;2023-05-07T01:09:06;6.18;;;3.72;;
78824;SDS011;68176;45.554;10.220;2023-05-07T04:29:38;4.15;;;2.88;;
78824;SDS011;68176;45.554;10.220;2023-05-07T04:32:09;3.37;;;2.73;;
78824;SDS011;68176;45.554;10.220;2023-05-07T04:34:41;3.70;;;3.20;;
78824;SDS011;68176;45.554;10.220;2023-05-07T04:37:06;2.35;;;2.05;;
78824;SDS011;68176;45.554;10.220;2023-05-07T04:39:32;2.35;;;2.15;;
78824;SDS011;68176;45.554;10.220;2023-05-07T04:49:19;3.47;;;2.78;;
78824;SDS011;68176;45.554;10.220;2023-05-07T04:51:44;3.10;;;2.50;;
78824;SDS011;68176;45.554;10.220;2023-05-07T04:54:12;2.85;;;1.60;;
78824;SDS011;68176;45.554;10.220;2023-05-07T04:56:43;3.08;;;2.53;;
78824;SDS011;68176;45.554;10.220;2023-05-07T04:59:36;3.25;;;2.78;;
78824;SDS011;68176;45.554;10.220;2023-05-07T05:02:13;3.97;;;3.10;;
78824;SDS011;68176;45.554;10.220;2023-05-07T05:04:38;3.55;;;3.05;;
78824;SDS011;68176;45.554;10.220;2023-05-07T05:07:04;2.60;;;2.40;;
78824;SDS011;68176;45.554;10.220;2023-05-07T05:09:35;3.40;;;3.10;;
78824;SDS011;68176;45.554;10.220;2023-05-07T05:12:06;3.40;;;2.85;;
78824;SDS011;68176;45.554;10.220;2023-05-07T05:14:32;4.03;;;2.45;;
78824;SDS011;68176;45.554;10.220;2023-05-07T05:17:02;3.00;;;2.50;;
78824;SDS011;68176;45.554;10.220;2023-05-07T05:19:32;2.88;;;2.47;;
78824;SDS011;68176;45.554;10.220;2023-05-07T05:22:02;2.95;;;2.40;;
78824;SDS011;68176;45.554;10.220;2023-05-07T05:24:32;3.42;;;2.30;;
78824;SDS011;68176;45.554;10.220;2023-05-07T05:27:02;2.85;;;2.45;;
78824;SDS011;68176;45.554;10.220;2023-05-07T05:29:32;2.75;;;2.45;;
78824;SDS011;68176;45.554;10.220;2023-05-07T05:32:06;3.40;;;3.10;;
78824;SDS011;68176;45.554;10.220;2023-05-07T05:34:32;3.53;;;2.72;;
78824;SDS011;68176;45.554;10.220;2023-05-07T05:37:05;3.22;;;2.63;;
78824;SDS011;68176;45.554;10.220;2023-05-07T05:39:32;3.55;;;2.33;;
78824;SDS011;68176;45.554;10.220;2023-05-07T05:45:03;3.63;;;2.10;;
78824;SDS011;68176;45.554;10.220;2023-05-07T05:47:32;3.20;;;2.47;;
78824;SDS011;68176;45.554;10.220;2023-05-07T05:49:57;2.40;;;2.20;;
78824;SDS011;68176;45.554;10.220;2023-05-07T05:52:28;2.55;;;1.40;;
78824;SDS011;68176;45.554;10.220;2023-05-07T05:54:54;3.65;;;2.65;;
78824;SDS011;68176;45.554;10.220;2023-05-07T05:57:31;2.75;;;2.05;;
78824;SDS011;68176;45.554;10.220;2023-05-07T06:00:02;3.87;;;2.30;;
78824;SDS011;68176;45.554;10.220;2023-05-07T06:02:38;2.42;;;2.05;;
78824;SDS011;68176;45.554;10.220;2023-05-07T06:05:04;1.80;;;1.60;;
78824;SDS011;68176;45.554;10.220;2023-05-07T06:07:32;2.75;;;2.35;;
78824;SDS011;68176;45.554;10.220;2023-05-07T06:13:23;2.67;;;2.17;;
78824;SDS011;68176;45.554;10.220;2023-05-07T06:19:34;3.05;;;2.28;;
78824;SDS011;68176;45.554;10.220;2023-05-07T06:22:00;4.35;;;2.80;;
78824;SDS011;68176;45.554;10.220;2023-05-07T06:24:26;3.30;;;2.45;;
78824;SDS011;68176;45.554;10.220;2023-05-07T06:26:55;2.83;;;2.33;;
78824;SDS011;68176;45.554;10.220;2023-05-07T06:29:25;2.83;;;2.35;;
78824;SDS011;68176;45.554;10.220;2023-05-07T06:31:55;3.28;;;2.55;;
78824;SDS011;68176;45.554;10.220;2023-05-07T06:34:25;3.35;;;2.63;;
78824;SDS011;68176;45.554;10.220;2023-05-07T06:37:06;3.80;;;1.90;;
78824;SDS011;68176;45.554;10.220;2023-05-07T06:39:32;3.55;;;3.25;;
78824;SDS011;68176;45.554;10.220;2023-05-07T06:41:59;2.65;;;1.55;;
78824;SDS011;68176;45.554;10.220;2023-05-07T06:44:30;3.75;;;2.28;;
78824;SDS011;68176;45.554;10.220;2023-05-07T06:46:58;3.17;;;2.05;;
78824;SDS011;68176;45.554;10.220;2023-05-07T06:49:28;2.60;;;1.85;;
78824;SDS011;68176;45.554;10.220;2023-05-07T06:52:00;2.53;;;1.95;;
78824;SDS011;68176;45.554;10.220;2023-05-07T06:54:41;2.70;;;2.33;;
78824;SDS011;68176;45.554;10.220;2023-05-07T06:57:07;2.30;;;2.10;;
78824;SDS011;68176;45.554;10.220;2023-05-07T06:59:41;2.60;;;1.87;;
78824;SDS011;68176;45.554;10.220;2023-05-07T07:02:16;2.97;;;2.08;;
78824;SDS011;68176;45.554;10.220;2023-05-07T07:04:42;2.00;;;1.80;;
78824;SDS011;68176;45.554;10.220;2023-05-07T07:07:15;2.45;;;1.95;;
78824;SDS011;68176;45.554;10.220;2023-05-07T07:09:40;3.65;;;2.05;;
78824;SDS011;68176;45.554;10.220;2023-05-07T07:12:10;2.60;;;2.08;;
78824;SDS011;68176;45.554;10.220;2023-05-07T07:14:43;2.67;;;1.63;;
78824;SDS011;68176;45.554;10.220;2023-05-07T07:17:27;3.27;;;2.63;;
78824;SDS011;68176;45.554;10.220;2023-05-07T07:20:05;1.70;;;0.50;;
78824;SDS011;68176;45.554;10.220;2023-05-07T07:22:37;2.13;;;1.67;;
78824;SDS011;68176;45.554;10.220;2023-05-07T07:25:09;2.92;;;2.05;;
78824;SDS011;68176;45.554;10.220;2023-05-07T07:27:45;3.25;;;2.00;;
78824;SDS011;68176;45.554;10.220;2023-05-07T07:30:31;4.00;;;2.70;;
78824;SDS011;68176;45.554;10.220;2023-05-07T07:33:05;2.92;;;1.85;;
78824;SDS011;68176;45.554;10.220;2023-05-07T07:35:48;3.40;;;2.33;;
78824;SDS011;68176;45.554;10.220;2023-05-07T07:43:41;2.40;;;1.97;;
78824;SDS011;68176;45.554;10.220;2023-05-07T07:46:18;2.70;;;2.38;;
78824;SDS011;68176;45.554;10.220;2023-05-07T08:11:11;3.47;;;2.85;;
78824;SDS011;68176;45.554;10.220;2023-05-07T08:13:37;5.20;;;4.30;;
78824;SDS011;68176;45.554;10.220;2023-05-07T08:16:05;10.10;;;4.40;;
78824;SDS011;68176;45.554;10.220;2023-05-07T08:18:35;5.15;;;3.80;;
78824;SDS011;68176;45.554;10.220;2023-05-07T08:21:05;6.57;;;4.53;;
78824;SDS011;68176;45.554;10.220;2023-05-07T08:23:35;9.68;;;7.82;;
78824;SDS011;68176;45.554;10.220;2023-05-07T08:26:08;12.90;;;7.95;;
78824;SDS011;68176;45.554;10.220;2023-05-07T08:28:36;16.20;;;9.65;;
78824;SDS011;68176;45.554;10.220;2023-05-07T08:36:06;15.73;;;9.93;;
78824;SDS011;68176;45.554;10.220;2023-05-07T08:38:36;14.80;;;11.00;;
78824;SDS011;68176;45.554;10.220;2023-05-07T08:41:05;13.50;;;11.30;;
78824;SDS011;68176;45.554;10.220;2023-05-07T08:43:36;15.88;;;9.25;;
78824;SDS011;68176;45.554;10.220;2023-05-07T08:46:06;16.73;;;8.95;;
78824;SDS011;68176;45.554;10.220;2023-05-07T08:48:36;10.48;;;8.35;;
78824;SDS011;68176;45.554;10.220;2023-05-07T16:41:48;2.93;;;2.43;;
78824;SDS011;68176;45.554;10.220;2023-05-07T16:44:15;4.45;;;3.85;;
78824;SDS011;68176;45.554;10.220;2023-05-07T16:46:43;4.03;;;3.55;;
78824;SDS011;68176;45.554;10.220;2023-05-07T16:49:12;8.95;;;4.10;;
78824;SDS011;68176;45.554;10.220;2023-05-07T16:51:42;6.07;;;5.28;;
78824;SDS011;68176;45.554;10.220;2023-05-07T16:54:12;9.13;;;5.25;;
78824;SDS011;68176;45.554;10.220;2023-05-07T16:56:42;6.35;;;4.55;;
78824;SDS011;68176;45.554;10.220;2023-05-07T16:59:12;7.25;;;4.35;;
78824;SDS011;68176;45.554;10.220;2023-05-07T17:01:42;8.82;;;4.03;;
78824;SDS011;68176;45.554;10.220;2023-05-07T17:04:12;6.13;;;4.55;;
78824;SDS011;68176;45.554;10.220;2023-05-07T17:06:42;6.53;;;5.72;;
78824;SDS011;68176;45.554;10.220;2023-05-07T17:09:12;8.43;;;5.65;;
78824;SDS011;68176;45.554;10.220;2023-05-07T17:11:42;6.18;;;4.57;;
78824;SDS011;68176;45.554;10.220;2023-05-07T17:14:12;9.77;;;5.93;;
78824;SDS011;68176;45.554;10.220;2023-05-07T17:16:42;5.75;;;4.55;;
78824;SDS011;68176;45.554;10.220;2023-05-07T17:19:12;8.15;;;5.10;;
78824;SDS011;68176;45.554;10.220;2023-05-07T17:21:42;8.13;;;5.20;;
78824;SDS011;68176;45.554;10.220;2023-05-07T17:24:12;10.60;;;3.78;;
78824;SDS011;68176;45.554;10.220;2023-05-07T17:26:42;6.35;;;5.20;;
78824;SDS011;68176;45.554;10.220;2023-05-07T17:29:12;6.18;;;4.47;;
78824;SDS011;68176;45.554;10.220;2023-05-07T17:31:42;5.45;;;3.92;;
78824;SDS011;68176;45.554;10.220;2023-05-07T17:34:13;7.18;;;3.47;;
78824;SDS011;68176;45.554;10.220;2023-05-07T17:36:42;5.38;;;3.40;;
78824;SDS011;68176;45.554;10.220;2023-05-07T17:39:12;4.80;;;3.25;;
78824;SDS011;68176;45.554;10.220;2023-05-07T17:41:42;5.78;;;3.50;;
78824;SDS011;68176;45.554;10.220;2023-05-07T17:44:12;5.53;;;3.38;;
78824;SDS011;68176;45.554;10.220;2023-05-07T17:46:42;4.63;;;3.38;;
78824;SDS011;68176;45.554;10.220;2023-05-07T17:49:13;6.22;;;3.47;;
78824;SDS011;68176;45.554;10.220;2023-05-07T17:51:42;6.18;;;3.85;;
78824;SDS011;68176;45.554;10.220;2023-05-07T17:54:12;6.13;;;3.25;;
78824;SDS011;68176;45.554;10.220;2023-05-07T17:56:42;6.38;;;3.00;;
78824;SDS011;68176;45.554;10.220;2023-05-07T17:59:12;5.93;;;3.38;;
78824;SDS011;68176;45.554;10.220;2023-05-07T18:01:42;4.47;;;3.35;;
78824;SDS011;68176;45.554;10.220;2023-05-07T18:04:12;7.63;;;2.70;;
78824;SDS011;68176;45.554;10.220;2023-05-07T18:06:42;5.90;;;3.92;;
78824;SDS011;68176;45.554;10.220;2023-05-07T18:09:12;6.60;;;4.63;;
78824;SDS011;68176;45.554;10.220;2023-05-07T18:11:42;13.30;;;4.65;;
78824;SDS011;68176;45.554;10.220;2023-05-07T18:14:24;6.90;;;3.75;;
78824;SDS011;68176;45.554;10.220;2023-05-07T18:17:05;4.97;;;3.55;;
78824;SDS011;68176;45.554;10.220;2023-05-07T18:19:33;8.02;;;3.30;;
78824;SDS011;68176;45.554;10.220;2023-05-07T18:25:23;9.38;;;3.15;;
78824;SDS011;68176;45.554;10.220;2023-05-07T18:28:00;3.60;;;1.80;;
78824;SDS011;68176;45.554;10.220;2023-05-07T18:51:54;4.15;;;2.38;;
78824;SDS011;68176;45.554;10.220;2023-05-07T18:57:55;3.78;;;2.92;;
78824;SDS011;68176;45.554;10.220;2023-05-07T19:00:30;5.05;;;3.25;;
78824;SDS011;68176;45.554;10.220;2023-05-07T19:02:55;2.80;;;1.70;;
78824;SDS011;68176;45.554;10.220;2023-05-07T19:05:23;4.15;;;3.40;;
78824;SDS011;68176;45.554;10.220;2023-05-07T19:07:53;3.88;;;2.45;;
78824;SDS011;68176;45.554;10.220;2023-05-07T19:10:23;9.98;;;3.42;;
78824;SDS011;68176;45.554;10.220;2023-05-07T19:12:54;4.93;;;2.08;;
78824;SDS011;68176;45.554;10.220;2023-05-07T19:15:24;6.82;;;2.55;;
78824;SDS011;68176;45.554;10.220;2023-05-07T19:17:53;5.75;;;2.58;;
78824;SDS011;68176;45.554;10.220;2023-05-07T19:20:23;5.40;;;2.85;;
78824;SDS011;68176;45.554;10.220;2023-05-07T19:22:53;7.45;;;2.67;;
78824;SDS011;68176;45.554;10.220;2023-05-07T19:25:23;3.30;;;2.60;;
78824;SDS011;68176;45.554;10.220;2023-05-07T19:27:53;5.60;;;2.38;;
78824;SDS011;68176;45.554;10.220;2023-05-07T19:30:24;5.68;;;2.55;;
78824;SDS011;68176;45.554;10.220;2023-05-07T19:32:54;4.45;;;2.80;;
78824;SDS011;68176;45.554;10.220;2023-05-07T19:35:24;3.40;;;2.80;;
78824;SDS011;68176;45.554;10.220;2023-05-07T19:37:54;4.68;;;2.17;;
78824;SDS011;68176;45.554;10.220;2023-05-07T19:40:24;3.80;;;2.10;;
78824;SDS011;68176;45.554;10.220;2023-05-07T19:42:54;4.22;;;3.10;;
78824;SDS011;68176;45.554;10.220;2023-05-07T19:45:24;6.75;;;2.50;;
78824;SDS011;68176;45.554;10.220;2023-05-07T19:47:57;3.88;;;2.80;;
78824;SDS011;68176;45.554;10.220;2023-05-07T19:50:24;3.97;;;1.88;;
78824;SDS011;68176;45.554;10.220;2023-05-07T19:52:54;3.95;;;2.33;;
78824;SDS011;68176;45.554;10.220;2023-05-07T19:55:24;3.10;;;1.83;;
78824;SDS011;68176;45.554;10.220;2023-05-07T19:57:57;4.65;;;2.42;;
78824;SDS011;68176;45.554;10.220;2023-05-07T20:00:24;4.57;;;2.03;;
78824;SDS011;68176;45.554;10.220;2023-05-07T20:02:55;4.90;;;3.35;;
78824;SDS011;68176;45.554;10.220;2023-05-07T20:12:08;5.40;;;2.65;;
78824;SDS011;68176;45.554;10.220;2023-05-07T20:14:51;2.65;;;2.20;;
78824;SDS011;68176;45.554;10.220;2023-05-07T20:17:24;4.10;;;2.23;;
78824;SDS011;68176;45.554;10.220;2023-05-07T20:49:08;2.87;;;1.90;;
78824;SDS011;68176;45.554;10.220;2023-05-07T22:03:53;3.08;;;2.03;;
78824;SDS011;68176;45.554;10.220;2023-05-07T22:06:43;2.72;;;1.98;;
78824;SDS011;68176;45.554;10.220;2023-05-07T22:23:03;2.80;;;1.92;;
78824;SDS011;68176;45.554;10.220;2023-05-07T22:36:30;3.85;;;2.40;;
78824;SDS011;68176;45.554;10.220;2023-05-07T22:38:55;3.30;;;2.30;;
78824;SDS011;68176;45.554;10.220;2023-05-07T22:50:40;3.20;;;2.50;;
78824;SDS011;68176;45.554;10.220;2023-05-07T22:53:05;3.65;;;2.70;;
